createdAt,value
2022-08-12T00:01:04.827Z,23.46
2022-08-12T00:03:50.966Z,23.63
2022-08-12T00:06:39.524Z,23.93
2022-08-12T00:09:26.516Z,23.01
2022-08-12T00:12:13.459Z,22.68
2022-08-12T00:15:01.105Z,23.45
2022-08-12T00:17:47.231Z,22.47
2022-08-12T00:20:33.164Z,22.66
2022-08-12T00:23:18.687Z,22.86
2022-08-12T00:26:23.063Z,23.03
2022-08-12T00:29:13.588Z,21.06
2022-08-12T00:32:00.988Z,21.71
2022-08-12T00:34:49.280Z,23.07
2022-08-12T00:37:36.189Z,22.60
2022-08-12T00:40:28.545Z,22.08
2022-08-12T00:42:57.102Z,21.98
2022-08-12T00:45:24.971Z,22.52
2022-08-12T00:47:53.588Z,22.79
2022-08-12T00:50:22.723Z,22.86
2022-08-12T00:52:52.615Z,21.03
2022-08-12T00:55:20.513Z,22.30
2022-08-12T00:57:50.125Z,22.33
2022-08-12T01:00:21.534Z,22.54
2022-08-12T01:02:57.578Z,22.60
2022-08-12T01:05:44.709Z,22.84
2022-08-12T01:08:30.383Z,22.29
2022-08-12T01:11:16.258Z,22.79
2022-08-12T01:13:50.274Z,23.19
2022-08-12T01:16:22.692Z,22.51
2022-08-12T01:18:52.685Z,22.50
2022-08-12T01:21:56.864Z,22.11
2022-08-12T01:24:31.386Z,22.74
2022-08-12T01:27:01.424Z,22.64
2022-08-12T01:29:33.055Z,22.63
2022-08-12T01:32:06.322Z,23.02
2022-08-12T01:34:39.531Z,22.76
2022-08-12T01:37:09.064Z,22.81
2022-08-12T01:40:31.623Z,22.34
2022-08-12T01:42:42.143Z,22.00
2022-08-12T01:45:10.236Z,21.85
2022-08-12T01:47:45.658Z,21.54
2022-08-12T01:50:55.127Z,21.99
2022-08-12T01:53:50.374Z,22.83
2022-08-12T01:56:22.120Z,22.28
2022-08-12T01:59:13.429Z,22.88
2022-08-12T02:01:41.713Z,20.67
2022-08-12T02:05:04.761Z,21.04
2022-08-12T02:08:09.317Z,21.22
2022-08-12T02:11:29.465Z,21.45
2022-08-12T02:14:00.346Z,21.69
2022-08-12T02:16:38.770Z,21.34
2022-08-12T02:19:49.896Z,21.03
2022-08-12T02:22:22.363Z,19.85
2022-08-12T02:24:50.959Z,19.79
2022-08-12T02:27:19.906Z,21.66
2022-08-12T02:29:48.455Z,21.56
2022-08-12T02:32:16.150Z,22.11
2022-08-12T02:34:44.679Z,21.70
2022-08-12T02:37:15.666Z,20.89
2022-08-12T02:39:49.830Z,21.43
2022-08-12T02:42:20.689Z,20.85
2022-08-12T02:44:51.568Z,21.29
2022-08-12T02:47:59.319Z,20.71
2022-08-12T02:50:10.953Z,20.43
2022-08-12T02:52:39.013Z,21.11
2022-08-12T02:55:28.733Z,20.87
2022-08-12T02:58:07.081Z,19.68
2022-08-12T03:00:37.925Z,20.92
2022-08-12T03:03:10.314Z,20.98
2022-08-12T03:05:45.778Z,21.15
2022-08-12T03:08:32.201Z,20.41
2022-08-12T03:11:14.410Z,20.85
2022-08-12T03:13:46.943Z,20.52
2022-08-12T03:16:14.881Z,20.20
2022-08-12T03:18:46.284Z,20.91
2022-08-12T03:21:17.109Z,20.69
2022-08-12T03:23:46.112Z,20.45
2022-08-12T03:26:14.881Z,19.50
2022-08-12T03:28:52.046Z,19.95
2022-08-12T03:31:21.896Z,21.19
2022-08-12T03:34:00.707Z,20.78
2022-08-12T03:36:35.512Z,19.28
2022-08-12T03:39:18.905Z,20.85
2022-08-12T03:41:52.037Z,19.07
2022-08-12T03:44:53.751Z,19.03
2022-08-12T03:47:53.825Z,19.34
2022-08-12T03:50:39.810Z,19.78
2022-08-12T03:53:29.025Z,20.60
2022-08-12T03:56:15.163Z,20.28
2022-08-12T03:59:00.942Z,19.93
2022-08-12T04:01:27.971Z,20.99
2022-08-12T04:03:55.436Z,20.06
2022-08-12T04:06:34.527Z,19.72
2022-08-12T04:09:16.267Z,20.23
2022-08-12T04:12:03.420Z,19.07
2022-08-12T04:14:31.385Z,20.59
2022-08-12T04:16:58.563Z,18.95
2022-08-12T04:19:26.596Z,20.39
2022-08-12T04:22:02.429Z,19.19
2022-08-12T04:24:35.488Z,20.60
2022-08-12T04:27:05.783Z,20.10
2022-08-12T04:30:29.374Z,19.87
2022-08-12T04:32:21.443Z,20.03
2022-08-12T04:34:48.491Z,20.20
2022-08-12T04:37:16.687Z,20.26
2022-08-12T04:39:46.042Z,18.91
2022-08-12T04:42:13.411Z,18.63
2022-08-12T04:44:40.292Z,18.11
2022-08-12T04:47:11.787Z,18.15
2022-08-12T04:49:40.981Z,18.46
2022-08-12T04:52:08.284Z,20.17
2022-08-12T04:54:35.931Z,20.27
2022-08-12T04:57:04.351Z,20.12
2022-08-12T04:59:43.705Z,18.10
2022-08-12T05:02:21.302Z,19.89
2022-08-12T05:04:58.849Z,19.42
2022-08-12T05:07:28.072Z,20.94
2022-08-12T05:10:01.031Z,21.37
2022-08-12T05:12:38.645Z,20.23
2022-08-12T05:15:19.563Z,18.81
2022-08-12T05:17:55.627Z,20.28
2022-08-12T05:20:23.116Z,21.91
2022-08-12T05:22:56.937Z,22.05
2022-08-12T05:25:25.182Z,21.80
2022-08-12T05:27:58.630Z,20.61
2022-08-12T05:30:27.955Z,21.94
2022-08-12T05:32:59.856Z,20.79
2022-08-12T05:35:27.081Z,21.17
2022-08-12T05:38:13.886Z,23.37
2022-08-12T05:40:42.079Z,23.43
2022-08-12T05:43:09.210Z,21.61
2022-08-12T05:45:38.341Z,22.12
2022-08-12T05:48:08.756Z,24.35
2022-08-12T05:50:36.348Z,23.02
2022-08-12T05:53:04.044Z,22.61
2022-08-12T05:55:31.799Z,23.48
2022-08-12T05:57:59.575Z,22.51
2022-08-12T06:00:26.919Z,22.42
2022-08-12T06:03:01.390Z,24.13
2022-08-12T06:05:51.872Z,21.85
2022-08-12T06:08:21.494Z,24.49
2022-08-12T06:10:50.495Z,23.22
2022-08-12T06:13:28.542Z,22.33
2022-08-12T06:16:07.533Z,23.47
2022-08-12T06:18:34.993Z,21.37
2022-08-12T06:21:02.557Z,23.36
2022-08-12T06:23:30.319Z,23.16
2022-08-12T06:25:57.992Z,24.89
2022-08-12T06:28:25.624Z,21.57
2022-08-12T06:31:22.223Z,23.68
2022-08-12T06:34:00.206Z,25.01
2022-08-12T06:36:32.618Z,24.71
2022-08-12T06:39:01.599Z,26.57
2022-08-12T06:42:02.482Z,26.83
2022-08-12T06:44:34.440Z,27.82
2022-08-12T06:47:01.443Z,25.49
2022-08-12T06:49:33.562Z,23.54
2022-08-12T06:52:00.488Z,23.36
2022-08-12T06:54:31.880Z,25.18
2022-08-12T06:57:04.889Z,26.37
2022-08-12T06:59:51.181Z,25.47
2022-08-12T07:02:22.662Z,25.30
2022-08-12T07:04:49.932Z,23.54
2022-08-12T07:07:16.848Z,26.85
2022-08-12T07:10:00.110Z,26.88
2022-08-12T07:12:32.271Z,24.41
2022-08-12T07:15:02.436Z,25.63
2022-08-12T07:17:37.446Z,24.87
2022-08-12T07:20:29.539Z,26.78
2022-08-12T07:22:57.881Z,23.64
2022-08-12T07:25:41.093Z,26.52
2022-08-12T07:28:23.657Z,25.23
2022-08-12T07:30:52.287Z,27.78
2022-08-12T07:33:28.273Z,28.55
2022-08-12T07:35:57.361Z,24.50
2022-08-12T07:38:28.954Z,27.34
2022-08-12T07:41:08.384Z,28.44
2022-08-12T07:43:54.549Z,28.51
2022-08-12T07:46:26.002Z,28.71
2022-08-12T07:48:55.176Z,28.60
2022-08-12T07:51:25.522Z,30.04
2022-08-12T07:54:00.250Z,30.17
2022-08-12T07:56:29.252Z,25.85
2022-08-12T07:58:59.513Z,26.23
2022-08-12T08:01:27.135Z,25.68
2022-08-12T08:04:18.507Z,27.46
2022-08-12T08:06:46.402Z,27.74
2022-08-12T08:09:15.155Z,26.18
2022-08-12T08:12:00.791Z,27.74
2022-08-12T08:14:32.979Z,24.85
2022-08-12T08:17:03.792Z,25.94
2022-08-12T08:19:32.548Z,29.49
2022-08-12T08:22:00.184Z,30.49
2022-08-12T08:24:29.127Z,28.81
2022-08-12T08:26:59.285Z,25.71
2022-08-12T08:29:26.884Z,27.98
2022-08-12T08:32:01.575Z,26.30
2022-08-12T08:34:54.191Z,29.22
2022-08-12T08:37:20.760Z,28.55
2022-08-12T08:39:47.850Z,25.18
2022-08-12T08:42:33.349Z,30.13
2022-08-12T08:45:01.417Z,27.81
2022-08-12T08:47:28.279Z,30.97
2022-08-12T08:50:01.176Z,32.41
2022-08-12T08:52:46.453Z,30.10
2022-08-12T08:55:16.451Z,30.14
2022-08-12T08:57:51.237Z,30.32
2022-08-12T09:00:20.257Z,27.72
2022-08-12T09:02:59.058Z,30.96
2022-08-12T09:05:27.932Z,28.13
2022-08-12T09:08:09.092Z,28.00
2022-08-12T09:10:45.751Z,27.27
2022-08-12T09:14:10.654Z,30.12
2022-08-12T09:16:20.060Z,26.44
2022-08-12T09:18:52.162Z,26.99
2022-08-12T09:21:20.774Z,26.90
2022-08-12T09:23:59.027Z,28.81
2022-08-12T09:26:29.601Z,29.57
2022-08-12T09:29:00.517Z,29.86
2022-08-12T09:32:03.131Z,29.87
2022-08-12T09:34:25.500Z,28.71
2022-08-12T09:37:02.980Z,29.95
2022-08-12T09:40:01.469Z,27.84
2022-08-12T09:43:11.026Z,29.55
2022-08-12T09:46:06.194Z,26.28
2022-08-12T09:48:35.215Z,28.56
2022-08-12T09:51:16.660Z,26.56
2022-08-12T09:54:05.412Z,27.96
2022-08-12T09:56:59.842Z,28.39
2022-08-12T10:00:16.904Z,28.34
2022-08-12T10:02:45.121Z,25.86
2022-08-12T10:04:57.991Z,28.47
2022-08-12T10:07:25.398Z,30.92
2022-08-12T10:09:58.259Z,29.39
2022-08-12T10:13:07.758Z,25.90
2022-08-12T10:16:01.541Z,27.71
2022-08-12T10:18:19.730Z,27.05
2022-08-12T10:20:46.857Z,26.79
2022-08-12T10:23:13.679Z,29.46
2022-08-12T10:26:36.646Z,28.77
2022-08-12T10:30:01.772Z,29.70
2022-08-12T10:32:20.792Z,30.38
2022-08-12T10:34:40.428Z,28.18
2022-08-12T10:38:07.393Z,30.38
2022-08-12T10:40:11.387Z,32.15
2022-08-12T10:43:00.681Z,30.30
2022-08-12T10:45:30.314Z,32.25
2022-08-12T10:48:20.456Z,30.83
2022-08-12T10:51:02.435Z,32.37
2022-08-12T10:53:45.019Z,31.59
2022-08-12T10:56:18.081Z,32.67
2022-08-12T10:58:47.077Z,29.01
2022-08-12T11:01:49.599Z,30.98
2022-08-12T11:04:27.160Z,29.43
2022-08-12T11:07:07.263Z,31.17
2022-08-12T11:09:55.741Z,31.20
2022-08-12T11:12:55.208Z,32.02
2022-08-12T11:15:21.264Z,32.45
2022-08-12T11:18:03.095Z,30.40
2022-08-12T11:20:31.072Z,29.64
2022-08-12T11:23:25.514Z,31.24
2022-08-12T11:25:57.628Z,30.46
2022-08-12T11:28:34.140Z,30.09
2022-08-12T11:31:03.549Z,28.56
2022-08-12T11:34:05.009Z,26.11
2022-08-12T11:36:22.023Z,28.07
2022-08-12T11:38:51.189Z,31.54
2022-08-12T11:41:31.304Z,32.85
2022-08-12T11:44:35.322Z,33.94
2022-08-12T11:46:54.743Z,31.62
2022-08-12T11:49:31.646Z,32.90
2022-08-12T11:52:03.747Z,32.61
2022-08-12T11:54:31.672Z,29.15
2022-08-12T11:57:02.099Z,29.73
2022-08-12T12:02:21.027Z,32.23
2022-08-12T12:04:52.562Z,31.14
2022-08-12T12:07:33.748Z,32.11
2022-08-12T12:10:11.225Z,29.86
2022-08-12T12:12:38.392Z,29.42
2022-08-12T12:15:09.680Z,29.58
2022-08-12T12:17:38.972Z,33.03
2022-08-12T12:20:09.556Z,33.07
2022-08-12T12:22:41.386Z,32.86
2022-08-12T12:25:13.052Z,33.16
2022-08-12T12:28:05.957Z,31.53
2022-08-12T12:30:36.496Z,34.73
2022-08-12T12:33:05.451Z,34.89
2022-08-12T12:36:18.136Z,27.39
2022-08-12T12:38:21.035Z,31.47
2022-08-12T12:40:52.593Z,31.11
2022-08-12T12:43:28.756Z,31.05
2022-08-12T12:46:07.050Z,32.13
2022-08-12T12:48:36.169Z,32.14
2022-08-12T12:51:48.385Z,30.23
2022-08-12T12:54:08.432Z,28.46
2022-08-12T12:56:42.541Z,29.59
2022-08-12T12:59:33.793Z,32.26
2022-08-12T13:02:08.138Z,31.14
2022-08-12T13:04:37.201Z,30.87
2022-08-12T13:07:06.877Z,31.72
2022-08-12T13:09:36.360Z,30.30
2022-08-12T13:12:10.439Z,34.66
2022-08-12T13:14:39.835Z,32.05
2022-08-12T13:17:09.747Z,31.66
2022-08-12T13:19:46.872Z,31.73
2022-08-12T13:22:20.527Z,28.38
2022-08-12T13:24:52.181Z,30.89
2022-08-12T13:27:22.676Z,32.31
2022-08-12T13:30:03.694Z,31.10
2022-08-12T13:32:31.823Z,33.07
2022-08-12T13:35:04.190Z,32.42
2022-08-12T13:37:56.752Z,29.99
2022-08-12T13:40:25.443Z,31.51
2022-08-12T13:42:57.869Z,28.69
2022-08-12T13:45:26.377Z,28.85
2022-08-12T13:48:04.734Z,31.81
2022-08-12T13:50:36.807Z,32.78
2022-08-12T13:53:24.911Z,31.47
2022-08-12T13:56:04.298Z,30.59
2022-08-12T13:58:34.642Z,29.86
2022-08-12T14:01:04.717Z,31.90
2022-08-12T14:03:51.065Z,31.62
2022-08-12T14:06:20.184Z,32.40
2022-08-12T14:08:50.896Z,33.64
2022-08-12T14:11:19.263Z,32.37
2022-08-12T14:14:03.427Z,32.31
2022-08-12T14:16:46.825Z,30.21
2022-08-12T14:19:22.333Z,32.26
2022-08-12T14:22:01.552Z,27.45
2022-08-12T14:24:40.845Z,30.04
2022-08-12T14:27:10.432Z,29.31
2022-08-12T14:30:06.123Z,30.14
2022-08-12T14:32:36.711Z,31.43
2022-08-12T14:35:11.084Z,30.43
2022-08-12T14:37:57.958Z,29.94
2022-08-12T14:40:30.331Z,28.75
2022-08-12T14:42:59.189Z,30.00
2022-08-12T14:45:44.448Z,27.80
2022-08-12T14:48:15.276Z,28.53
2022-08-12T14:51:09.739Z,30.18
2022-08-12T14:57:05.960Z,29.25
2022-08-12T14:59:26.982Z,29.12
2022-08-12T15:02:20.761Z,28.44
2022-08-12T15:04:56.221Z,29.50
2022-08-12T15:07:34.221Z,28.47
2022-08-12T15:10:10.874Z,29.05
2022-08-12T15:12:40.528Z,27.74
2022-08-12T15:15:10.330Z,28.41
2022-08-12T15:17:38.675Z,28.75
2022-08-12T15:20:31.134Z,27.88
2022-08-12T15:22:57.882Z,26.61
2022-08-12T15:25:25.497Z,26.89
2022-08-12T15:28:04.437Z,26.64
2022-08-12T15:30:41.045Z,31.01
2022-08-12T15:33:12.825Z,28.58
2022-08-12T15:35:52.265Z,29.27
2022-08-12T15:38:25.253Z,29.48
2022-08-12T15:40:53.536Z,30.05
2022-08-12T15:43:27.328Z,30.23
2022-08-12T15:46:15.637Z,28.20
2022-08-12T15:48:47.010Z,27.47
2022-08-12T15:51:57.250Z,26.90
2022-08-12T15:54:30.947Z,30.28
2022-08-12T15:57:07.697Z,28.31
2022-08-12T15:59:51.281Z,28.85
2022-08-12T16:02:19.874Z,27.77
2022-08-12T16:04:51.283Z,28.70
2022-08-12T16:07:29.984Z,31.91
2022-08-12T16:10:06.286Z,30.90
2022-08-12T16:12:43.302Z,28.03
2022-08-12T16:15:11.951Z,29.07
2022-08-12T16:18:19.289Z,32.22
2022-08-12T16:20:34.294Z,30.27
2022-08-12T16:23:04.746Z,29.38
2022-08-12T16:26:03.049Z,30.39
2022-08-12T16:28:32.243Z,28.35
2022-08-12T16:31:00.308Z,27.67
2022-08-12T16:33:59.391Z,29.34
2022-08-12T16:36:31.747Z,29.80
2022-08-12T16:39:01.479Z,28.92
2022-08-12T16:41:39.844Z,28.31
2022-08-12T16:44:09.019Z,27.67
2022-08-12T16:46:37.432Z,27.92
2022-08-12T16:49:08.997Z,28.58
2022-08-12T16:51:46.719Z,29.06
2022-08-12T16:54:21.912Z,28.94
2022-08-12T16:56:58.330Z,29.93
2022-08-12T16:59:53.432Z,29.31
2022-08-12T17:02:33.858Z,28.16
2022-08-12T17:05:05.128Z,29.13
2022-08-12T17:07:38.245Z,27.33
2022-08-12T17:10:13.552Z,28.16
2022-08-12T17:12:45.521Z,28.50
2022-08-12T17:15:50.112Z,28.00
2022-08-12T17:18:39.073Z,27.81
2022-08-12T17:20:56.422Z,25.92
2022-08-12T17:23:26.770Z,27.98
2022-08-12T17:26:02.399Z,25.54
2022-08-12T17:28:31.742Z,26.65
2022-08-12T17:31:01.024Z,26.28
2022-08-12T17:33:33.259Z,26.41
2022-08-12T17:36:05.777Z,27.57
2022-08-12T17:38:36.055Z,26.78
2022-08-12T17:41:22.235Z,26.96
2022-08-12T17:43:58.555Z,28.09
2022-08-12T17:46:33.259Z,27.36
2022-08-12T17:49:00.911Z,28.97
2022-08-12T17:51:50.504Z,28.71
2022-08-12T17:54:23.553Z,27.50
2022-08-12T17:56:51.300Z,27.06
2022-08-12T17:59:41.771Z,27.55
2022-08-12T18:02:08.226Z,27.85
2022-08-12T18:04:36.411Z,27.97
2022-08-12T18:07:06.288Z,26.82
2022-08-12T18:09:36.900Z,27.82
2022-08-12T18:12:26.809Z,27.84
2022-08-12T18:16:03.516Z,29.10
2022-08-12T18:18:01.790Z,27.39
2022-08-12T18:20:32.813Z,28.52
2022-08-12T18:23:04.623Z,28.65
2022-08-12T18:26:15.454Z,27.89
2022-08-12T18:28:43.237Z,27.58
2022-08-12T18:31:14.216Z,27.16
2022-08-12T18:33:46.111Z,26.76
2022-08-12T18:36:14.192Z,28.09
2022-08-12T18:38:51.351Z,28.58
2022-08-12T18:41:36.039Z,27.38
2022-08-12T18:44:08.083Z,27.81
2022-08-12T18:46:54.079Z,28.01
2022-08-12T18:49:30.603Z,26.72
2022-08-12T18:52:04.837Z,28.53
2022-08-12T18:54:36.128Z,26.90
2022-08-12T18:57:16.717Z,28.11
2022-08-12T19:00:00.683Z,27.94
2022-08-12T19:02:33.070Z,27.68
2022-08-12T19:05:09.309Z,28.12
2022-08-12T19:07:49.510Z,27.48
2022-08-12T19:10:23.130Z,27.96
2022-08-12T19:13:12.718Z,26.80
2022-08-12T19:15:45.586Z,26.30
2022-08-12T19:18:13.282Z,27.15
2022-08-12T19:20:42.058Z,27.65
2022-08-12T19:23:21.043Z,26.61
2022-08-12T19:25:59.260Z,26.52
2022-08-12T19:28:34.961Z,26.59
2022-08-12T19:31:55.516Z,25.96
2022-08-12T19:38:03.211Z,26.65
2022-08-12T19:40:31.785Z,26.73
2022-08-12T19:43:18.905Z,26.91
2022-08-12T19:45:56.546Z,27.09
2022-08-12T19:48:30.471Z,26.45
2022-08-12T19:50:59.347Z,26.18
2022-08-12T19:53:56.873Z,26.37
2022-08-12T19:56:25.188Z,26.51
2022-08-12T19:58:52.515Z,26.40
2022-08-12T20:01:21.638Z,25.82
2022-08-12T20:03:57.394Z,25.27
2022-08-12T20:06:29.259Z,26.20
2022-08-12T20:08:58.407Z,24.76
2022-08-12T20:12:09.029Z,25.43
2022-08-12T20:14:18.975Z,24.77
2022-08-12T20:16:51.609Z,24.11
2022-08-12T20:19:23.473Z,24.71
2022-08-12T20:21:50.562Z,25.18
2022-08-12T20:24:19.094Z,24.07
2022-08-12T20:26:46.514Z,24.86
2022-08-12T20:29:13.737Z,23.49
2022-08-12T20:31:41.502Z,22.85
2022-08-12T20:34:12.347Z,24.42
2022-08-12T20:36:44.971Z,24.50
2022-08-12T20:39:35.925Z,23.51
2022-08-12T20:42:07.254Z,24.07
2022-08-12T20:44:39.687Z,23.41
2022-08-12T20:47:20.263Z,24.98
2022-08-12T20:49:55.662Z,25.58
2022-08-12T20:52:30.220Z,25.45
2022-08-12T20:54:58.101Z,24.20
2022-08-12T20:57:38.131Z,24.16
2022-08-12T21:00:18.150Z,23.43
2022-08-12T21:02:50.409Z,23.07
2022-08-12T21:06:09.838Z,21.59
2022-08-12T21:08:26.666Z,21.70
2022-08-12T21:10:58.983Z,22.70
2022-08-12T21:13:27.089Z,22.64
2022-08-12T21:16:00.024Z,23.50
2022-08-12T21:18:29.071Z,23.92
2022-08-12T21:20:59.020Z,22.41
2022-08-12T21:23:30.753Z,22.41
2022-08-12T21:26:06.158Z,22.04
2022-08-12T21:28:38.500Z,23.49
2022-08-12T21:32:34.738Z,22.91
2022-08-12T21:34:07.960Z,22.35
2022-08-12T21:36:39.883Z,23.55
2022-08-12T21:39:18.934Z,24.15
2022-08-12T21:41:57.248Z,24.23
2022-08-12T21:45:48.438Z,23.59
2022-08-12T21:47:19.782Z,23.99
2022-08-12T21:49:55.745Z,23.25
2022-08-12T21:52:35.510Z,22.94
2022-08-12T21:55:18.280Z,23.75
2022-08-12T21:57:53.136Z,22.45
2022-08-12T22:00:31.943Z,21.36
2022-08-12T22:04:02.661Z,22.37
2022-08-12T22:06:31.419Z,22.41
2022-08-12T22:09:17.152Z,20.87
2022-08-12T22:11:57.006Z,21.70
2022-08-12T22:14:28.073Z,21.81
2022-08-12T22:16:56.919Z,20.25
2022-08-12T22:19:23.866Z,20.86
2022-08-12T22:21:53.758Z,22.63
2022-08-12T22:24:26.981Z,20.87
2022-08-12T22:27:17.879Z,20.17
2022-08-12T22:30:16.869Z,22.25
2022-08-12T22:32:50.134Z,22.46
2022-08-12T22:35:55.954Z,22.69
2022-08-12T22:38:24.119Z,22.84
2022-08-12T22:40:54.740Z,23.15
2022-08-12T22:43:58.965Z,21.64
2022-08-12T22:46:52.942Z,21.69
2022-08-12T22:49:36.878Z,21.29
2022-08-12T22:52:18.584Z,22.68
2022-08-12T22:55:03.802Z,21.96
2022-08-12T22:57:54.010Z,22.36
2022-08-12T23:00:24.301Z,22.30
2022-08-12T23:02:57.028Z,21.97
2022-08-12T23:05:36.872Z,21.51
2022-08-12T23:08:21.934Z,21.90
2022-08-12T23:10:49.743Z,22.59
2022-08-12T23:13:43.251Z,22.08
2022-08-12T23:16:28.387Z,22.46
2022-08-12T23:19:01.475Z,22.12
2022-08-12T23:22:06.714Z,19.41
2022-08-12T23:24:35.560Z,20.94
2022-08-12T23:27:23.691Z,21.38
2022-08-12T23:30:17.614Z,20.23
2022-08-12T23:32:38.571Z,20.58
2022-08-12T23:35:07.287Z,21.01
2022-08-12T23:37:47.841Z,21.39
2022-08-12T23:40:22.296Z,21.03
2022-08-12T23:42:51.239Z,20.05
2022-08-12T23:45:20.121Z,21.29
2022-08-12T23:48:00.202Z,20.27
2022-08-12T23:50:34.418Z,20.56
2022-08-12T23:53:06.597Z,21.22
2022-08-12T23:55:45.665Z,21.53
2022-08-12T23:58:22.877Z,21.17
